sensor_id;sensor_type;location;lat;lon;timestamp;pressure;altitude;pressure_sealevel;temperature;humidity
51781;BME280;37844;57.126;24.288;2023-03-04T00:02:10;99592.69;;;2.18;100.00
51781;BME280;37844;57.126;24.288;2023-03-04T00:04:36;99579.19;;;2.20;100.00
51781;BME280;37844;57.126;24.288;2023-03-04T00:07:01;99573.19;;;2.17;100.00
51781;BME280;37844;57.126;24.288;2023-03-04T00:09:26;99573.78;;;2.08;100.00
51781;BME280;37844;57.126;24.288;2023-03-04T00:11:52;99564.44;;;2.07;100.00
51781;BME280;37844;57.126;24.288;2023-03-04T00:14:17;99561.63;;;1.98;100.00
51781;BME280;37844;57.126;24.288;2023-03-04T00:16:43;99567.56;;;1.98;100.00
51781;BME280;37844;57.126;24.288;2023-03-04T00:19:08;99560.72;;;1.96;100.00
51781;BME280;37844;57.126;24.288;2023-03-04T00:21:34;99534.88;;;1.80;100.00
51781;BME280;37844;57.126;24.288;2023-03-04T00:24:00;99565.84;;;1.97;100.00
51781;BME280;37844;57.126;24.288;2023-03-04T00:26:25;99555.63;;;1.96;100.00
51781;BME280;37844;57.126;24.288;2023-03-04T00:28:50;99559.00;;;1.95;100.00
51781;BME280;37844;57.126;24.288;2023-03-04T00:31:16;99562.34;;;1.94;100.00
51781;BME280;37844;57.126;24.288;2023-03-04T00:33:41;99551.84;;;1.81;100.00
51781;BME280;37844;57.126;24.288;2023-03-04T00:36:08;99552.69;;;1.82;100.00
51781;BME280;37844;57.126;24.288;2023-03-04T00:38:34;99553.41;;;1.78;100.00
51781;BME280;37844;57.126;24.288;2023-03-04T00:40:59;99552.41;;;1.71;100.00
51781;BME280;37844;57.126;24.288;2023-03-04T00:43:25;99541.28;;;1.67;100.00
51781;BME280;37844;57.126;24.288;2023-03-04T00:45:50;99540.47;;;1.68;100.00
51781;BME280;37844;57.126;24.288;2023-03-04T00:48:15;99531.03;;;1.64;100.00
51781;BME280;37844;57.126;24.288;2023-03-04T00:50:42;99533.44;;;1.60;100.00
51781;BME280;37844;57.126;24.288;2023-03-04T00:53:08;99528.50;;;1.64;100.00
51781;BME280;37844;57.126;24.288;2023-03-04T00:55:33;99524.19;;;1.62;100.00
51781;BME280;37844;57.126;24.288;2023-03-04T00:57:58;99513.06;;;1.58;100.00
51781;BME280;37844;57.126;24.288;2023-03-04T01:00:24;99518.22;;;1.60;100.00
51781;BME280;37844;57.126;24.288;2023-03-04T01:02:49;99510.72;;;1.64;100.00
51781;BME280;37844;57.126;24.288;2023-03-04T01:05:15;99509.81;;;1.62;100.00
51781;BME280;37844;57.126;24.288;2023-03-04T01:07:40;99510.75;;;1.66;100.00
51781;BME280;37844;57.126;24.288;2023-03-04T01:10:06;99507.50;;;1.70;100.00
51781;BME280;37844;57.126;24.288;2023-03-04T01:12:32;99496.69;;;1.77;100.00
51781;BME280;37844;57.126;24.288;2023-03-04T01:14:57;99492.44;;;1.78;100.00
51781;BME280;37844;57.126;24.288;2023-03-04T01:17:22;99493.47;;;1.83;100.00
51781;BME280;37844;57.126;24.288;2023-03-04T01:19:48;99484.97;;;1.82;100.00
51781;BME280;37844;57.126;24.288;2023-03-04T01:22:13;99486.59;;;1.80;100.00
51781;BME280;37844;57.126;24.288;2023-03-04T01:24:41;99489.06;;;1.77;100.00
51781;BME280;37844;57.126;24.288;2023-03-04T01:27:06;99484.69;;;1.73;100.00
51781;BME280;37844;57.126;24.288;2023-03-04T01:29:32;99488.06;;;1.72;100.00
51781;BME280;37844;57.126;24.288;2023-03-04T01:31:57;99480.41;;;1.70;100.00
51781;BME280;37844;57.126;24.288;2023-03-04T01:34:22;99414.03;;;1.28;100.00
51781;BME280;37844;57.126;24.288;2023-03-04T01:36:48;99480.91;;;1.59;100.00
51781;BME280;37844;57.126;24.288;2023-03-04T01:39:13;99451.00;;;1.48;100.00
51781;BME280;37844;57.126;24.288;2023-03-04T01:41:39;99473.84;;;1.48;100.00
51781;BME280;37844;57.126;24.288;2023-03-04T01:44:04;99464.66;;;1.52;100.00
51781;BME280;37844;57.126;24.288;2023-03-04T01:46:30;99444.03;;;1.41;100.00
51781;BME280;37844;57.126;24.288;2023-03-04T01:48:55;99455.94;;;1.44;100.00
51781;BME280;37844;57.126;24.288;2023-03-04T01:51:21;99450.06;;;1.45;100.00
51781;BME280;37844;57.126;24.288;2023-03-04T01:53:47;99462.66;;;1.42;100.00
51781;BME280;37844;57.126;24.288;2023-03-04T01:56:24;99454.41;;;1.49;100.00
51781;BME280;37844;57.126;24.288;2023-03-04T01:59:08;99456.16;;;1.52;100.00
51781;BME280;37844;57.126;24.288;2023-03-04T02:01:34;99469.75;;;1.52;100.00
51781;BME280;37844;57.126;24.288;2023-03-04T02:03:59;99471.38;;;1.21;100.00
51781;BME280;37844;57.126;24.288;2023-03-04T02:06:25;99444.19;;;0.90;100.00
51781;BME280;37844;57.126;24.288;2023-03-04T02:08:50;99454.97;;;0.83;100.00
51781;BME280;37844;57.126;24.288;2023-03-04T02:11:16;99454.41;;;0.92;100.00
51781;BME280;37844;57.126;24.288;2023-03-04T02:13:41;99454.59;;;0.98;100.00
51781;BME280;37844;57.126;24.288;2023-03-04T02:16:06;99447.78;;;0.97;100.00
51781;BME280;37844;57.126;24.288;2023-03-04T02:18:32;99430.19;;;1.01;100.00
51781;BME280;37844;57.126;24.288;2023-03-04T02:21:06;99439.59;;;1.05;100.00
51781;BME280;37844;57.126;24.288;2023-03-04T02:23:37;99428.06;;;1.15;100.00
51781;BME280;37844;57.126;24.288;2023-03-04T02:28:34;99424.19;;;1.28;100.00
51781;BME280;37844;57.126;24.288;2023-03-04T02:30:59;99421.81;;;1.34;100.00
51781;BME280;37844;57.126;24.288;2023-03-04T02:33:24;99410.19;;;1.42;100.00
51781;BME280;37844;57.126;24.288;2023-03-04T02:35:50;99420.47;;;1.45;100.00
51781;BME280;37844;57.126;24.288;2023-03-04T02:38:15;99409.53;;;1.48;100.00
51781;BME280;37844;57.126;24.288;2023-03-04T02:40:42;99422.22;;;1.48;100.00
51781;BME280;37844;57.126;24.288;2023-03-04T02:43:10;99402.69;;;1.45;100.00
51781;BME280;37844;57.126;24.288;2023-03-04T02:45:40;99411.94;;;1.43;100.00
51781;BME280;37844;57.126;24.288;2023-03-04T02:48:06;99409.31;;;1.40;100.00
51781;BME280;37844;57.126;24.288;2023-03-04T02:50:34;99410.25;;;1.44;100.00
51781;BME280;37844;57.126;24.288;2023-03-04T02:52:59;99400.03;;;1.41;100.00
51781;BME280;37844;57.126;24.288;2023-03-04T02:55:25;99397.50;;;1.42;100.00
51781;BME280;37844;57.126;24.288;2023-03-04T02:57:50;99379.84;;;1.45;100.00
51781;BME280;37844;57.126;24.288;2023-03-04T03:00:16;99393.34;;;1.44;100.00
51781;BME280;37844;57.126;24.288;2023-03-04T03:02:41;99382.50;;;1.50;100.00
51781;BME280;37844;57.126;24.288;2023-03-04T03:05:07;99396.06;;;1.51;100.00
51781;BME280;37844;57.126;24.288;2023-03-04T03:07:32;99390.25;;;1.55;100.00
51781;BME280;37844;57.126;24.288;2023-03-04T03:09:59;99381.66;;;1.50;100.00
51781;BME280;37844;57.126;24.288;2023-03-04T03:12:25;99373.13;;;1.47;100.00
51781;BME280;37844;57.126;24.288;2023-03-04T03:14:50;99373.25;;;1.52;100.00
51781;BME280;37844;57.126;24.288;2023-03-04T03:17:16;99370.59;;;1.47;100.00
51781;BME280;37844;57.126;24.288;2023-03-04T03:19:41;99373.94;;;1.46;100.00
51781;BME280;37844;57.126;24.288;2023-03-04T03:22:07;99368.00;;;1.46;100.00
51781;BME280;37844;57.126;24.288;2023-03-04T03:24:32;99363.78;;;1.46;100.00
51781;BME280;37844;57.126;24.288;2023-03-04T03:26:58;99368.78;;;1.43;100.00
51781;BME280;37844;57.126;24.288;2023-03-04T03:29:23;99360.97;;;1.37;100.00
51781;BME280;37844;57.126;24.288;2023-03-04T03:31:48;99292.97;;;0.94;100.00
51781;BME280;37844;57.126;24.288;2023-03-04T03:34:14;99364.16;;;1.29;100.00
51781;BME280;37844;57.126;24.288;2023-03-04T03:36:39;99354.00;;;1.30;100.00
51781;BME280;37844;57.126;24.288;2023-03-04T03:39:05;99347.19;;;1.27;100.00
51781;BME280;37844;57.126;24.288;2023-03-04T03:41:30;99358.84;;;1.21;100.00
51781;BME280;37844;57.126;24.288;2023-03-04T03:43:56;99355.44;;;1.20;100.00
51781;BME280;37844;57.126;24.288;2023-03-04T03:46:21;99342.94;;;1.28;100.00
51781;BME280;37844;57.126;24.288;2023-03-04T03:48:47;99333.56;;;1.24;100.00
51781;BME280;37844;57.126;24.288;2023-03-04T03:51:13;99342.94;;;1.26;100.00
51781;BME280;37844;57.126;24.288;2023-03-04T03:53:38;99331.16;;;1.29;100.00
51781;BME280;37844;57.126;24.288;2023-03-04T03:56:04;99334.34;;;1.21;100.00
51781;BME280;37844;57.126;24.288;2023-03-04T03:58:29;99328.94;;;1.11;100.00
51781;BME280;37844;57.126;24.288;2023-03-04T04:00:55;99341.09;;;0.91;100.00
51781;BME280;37844;57.126;24.288;2023-03-04T04:03:21;99339.84;;;0.78;100.00
51781;BME280;37844;57.126;24.288;2023-03-04T04:05:46;99341.81;;;0.87;100.00
51781;BME280;37844;57.126;24.288;2023-03-04T04:08:12;99337.22;;;0.75;100.00
51781;BME280;37844;57.126;24.288;2023-03-04T04:10:38;99337.09;;;0.70;100.00
51781;BME280;37844;57.126;24.288;2023-03-04T04:13:06;99336.16;;;0.67;100.00
51781;BME280;37844;57.126;24.288;2023-03-04T04:15:31;99349.06;;;0.74;100.00
51781;BME280;37844;57.126;24.288;2023-03-04T04:17:57;99320.13;;;0.68;100.00
51781;BME280;37844;57.126;24.288;2023-03-04T04:20:22;99336.78;;;0.59;100.00
51781;BME280;37844;57.126;24.288;2023-03-04T04:22:48;99342.72;;;0.60;100.00
51781;BME280;37844;57.126;24.288;2023-03-04T04:25:13;99324.69;;;0.51;100.00
51781;BME280;37844;57.126;24.288;2023-03-04T04:27:39;99339.63;;;0.41;100.00
51781;BME280;37844;57.126;24.288;2023-03-04T04:30:04;99340.31;;;0.37;100.00
51781;BME280;37844;57.126;24.288;2023-03-04T04:32:30;99329.03;;;0.28;100.00
51781;BME280;37844;57.126;24.288;2023-03-04T04:34:56;99332.56;;;0.33;100.00
51781;BME280;37844;57.126;24.288;2023-03-04T04:37:21;99337.78;;;0.37;100.00
51781;BME280;37844;57.126;24.288;2023-03-04T04:39:47;99322.63;;;0.39;100.00
51781;BME280;37844;57.126;24.288;2023-03-04T04:42:12;99325.31;;;0.44;100.00
51781;BME280;37844;57.126;24.288;2023-03-04T04:44:37;99327.72;;;0.39;100.00
51781;BME280;37844;57.126;24.288;2023-03-04T04:47:04;99309.53;;;0.25;100.00
51781;BME280;37844;57.126;24.288;2023-03-04T04:49:30;99297.00;;;0.30;100.00
51781;BME280;37844;57.126;24.288;2023-03-04T04:51:56;99312.22;;;0.30;100.00
51781;BME280;37844;57.126;24.288;2023-03-04T04:54:22;99309.00;;;0.35;100.00
51781;BME280;37844;57.126;24.288;2023-03-04T04:56:47;99310.44;;;0.27;100.00
51781;BME280;37844;57.126;24.288;2023-03-04T04:59:13;99307.38;;;0.37;100.00
51781;BME280;37844;57.126;24.288;2023-03-04T05:01:38;99305.59;;;0.35;100.00
51781;BME280;37844;57.126;24.288;2023-03-04T05:04:04;99303.28;;;0.41;100.00
51781;BME280;37844;57.126;24.288;2023-03-04T05:06:29;99297.38;;;0.42;100.00
51781;BME280;37844;57.126;24.288;2023-03-04T05:08:55;99308.56;;;0.49;100.00
51781;BME280;37844;57.126;24.288;2023-03-04T05:11:21;99303.56;;;0.52;100.00
51781;BME280;37844;57.126;24.288;2023-03-04T05:13:47;99303.72;;;0.56;100.00
51781;BME280;37844;57.126;24.288;2023-03-04T05:16:13;99295.97;;;0.52;100.00
51781;BME280;37844;57.126;24.288;2023-03-04T05:18:38;99311.94;;;0.49;100.00
51781;BME280;37844;57.126;24.288;2023-03-04T05:21:04;99294.41;;;0.55;100.00
51781;BME280;37844;57.126;24.288;2023-03-04T05:23:31;99305.97;;;0.47;100.00
51781;BME280;37844;57.126;24.288;2023-03-04T05:25:57;99288.09;;;0.42;100.00
51781;BME280;37844;57.126;24.288;2023-03-04T05:28:23;99313.56;;;0.46;100.00
51781;BME280;37844;57.126;24.288;2023-03-04T05:30:49;99297.78;;;0.56;100.00
51781;BME280;37844;57.126;24.288;2023-03-04T05:33:15;99304.56;;;0.57;100.00
51781;BME280;37844;57.126;24.288;2023-03-04T05:35:42;99298.69;;;0.58;100.00
51781;BME280;37844;57.126;24.288;2023-03-04T05:38:08;99302.16;;;0.60;100.00
51781;BME280;37844;57.126;24.288;2023-03-04T05:40:34;99293.63;;;0.58;100.00
51781;BME280;37844;57.126;24.288;2023-03-04T05:43:00;99310.56;;;0.59;100.00
51781;BME280;37844;57.126;24.288;2023-03-04T05:45:26;99307.94;;;0.56;100.00
51781;BME280;37844;57.126;24.288;2023-03-04T05:47:52;99289.13;;;0.49;100.00
51781;BME280;37844;57.126;24.288;2023-03-04T05:50:18;99297.59;;;0.50;100.00
51781;BME280;37844;57.126;24.288;2023-03-04T05:52:44;99289.84;;;0.45;100.00
51781;BME280;37844;57.126;24.288;2023-03-04T05:55:10;99296.84;;;0.52;100.00
51781;BME280;37844;57.126;24.288;2023-03-04T05:57:35;99291.88;;;0.55;100.00
51781;BME280;37844;57.126;24.288;2023-03-04T06:00:01;99300.53;;;0.62;100.00
51781;BME280;37844;57.126;24.288;2023-03-04T06:02:29;99276.22;;;0.70;100.00
51781;BME280;37844;57.126;24.288;2023-03-04T06:04:55;99284.81;;;0.74;100.00
51781;BME280;37844;57.126;24.288;2023-03-04T06:07:20;99289.56;;;0.63;100.00
51781;BME280;37844;57.126;24.288;2023-03-04T06:09:46;99274.41;;;0.66;100.00
51781;BME280;37844;57.126;24.288;2023-03-04T06:12:12;99279.50;;;0.66;100.00
51781;BME280;37844;57.126;24.288;2023-03-04T06:14:38;99284.53;;;0.65;100.00
51781;BME280;37844;57.126;24.288;2023-03-04T06:17:06;99289.59;;;0.65;100.00
51781;BME280;37844;57.126;24.288;2023-03-04T06:19:32;99295.34;;;0.59;100.00
51781;BME280;37844;57.126;24.288;2023-03-04T06:21:58;99295.97;;;0.52;100.00
51781;BME280;37844;57.126;24.288;2023-03-04T06:24:23;99279.28;;;0.58;100.00
51781;BME280;37844;57.126;24.288;2023-03-04T06:26:49;99276.69;;;0.57;100.00
51781;BME280;37844;57.126;24.288;2023-03-04T06:29:15;99293.16;;;0.42;100.00
51781;BME280;37844;57.126;24.288;2023-03-04T06:31:40;99268.41;;;0.34;100.00
51781;BME280;37844;57.126;24.288;2023-03-04T06:34:06;99287.00;;;0.34;100.00
51781;BME280;37844;57.126;24.288;2023-03-04T06:36:32;99280.34;;;0.38;100.00
51781;BME280;37844;57.126;24.288;2023-03-04T06:38:58;99272.81;;;0.39;100.00
51781;BME280;37844;57.126;24.288;2023-03-04T06:41:25;99281.41;;;0.45;100.00
51781;BME280;37844;57.126;24.288;2023-03-04T06:43:54;99263.38;;;0.64;100.00
51781;BME280;37844;57.126;24.288;2023-03-04T06:46:20;99256.97;;;0.77;100.00
51781;BME280;37844;57.126;24.288;2023-03-04T06:48:45;99261.09;;;1.03;100.00
51781;BME280;37844;57.126;24.288;2023-03-04T06:51:11;99256.59;;;0.93;100.00
51781;BME280;37844;57.126;24.288;2023-03-04T06:53:38;99241.53;;;0.99;100.00
51781;BME280;37844;57.126;24.288;2023-03-04T06:56:04;99263.63;;;1.03;100.00
51781;BME280;37844;57.126;24.288;2023-03-04T06:58:30;99246.38;;;0.92;100.00
51781;BME280;37844;57.126;24.288;2023-03-04T07:01:09;99251.31;;;0.86;100.00
51781;BME280;37844;57.126;24.288;2023-03-04T07:03:35;99250.22;;;0.77;100.00
51781;BME280;37844;57.126;24.288;2023-03-04T07:06:00;99256.03;;;0.73;100.00
51781;BME280;37844;57.126;24.288;2023-03-04T07:08:32;99262.72;;;0.71;100.00
51781;BME280;37844;57.126;24.288;2023-03-04T07:11:01;99240.09;;;0.77;100.00
51781;BME280;37844;57.126;24.288;2023-03-04T07:13:29;99248.53;;;0.78;100.00
51781;BME280;37844;57.126;24.288;2023-03-04T07:15:58;99258.03;;;0.85;100.00
51781;BME280;37844;57.126;24.288;2023-03-04T07:18:24;99256.75;;;0.99;100.00
51781;BME280;37844;57.126;24.288;2023-03-04T07:20:52;99255.88;;;0.97;100.00
51781;BME280;37844;57.126;24.288;2023-03-04T07:23:18;99250.41;;;0.83;100.00
51781;BME280;37844;57.126;24.288;2023-03-04T07:25:44;99257.78;;;0.76;100.00
51781;BME280;37844;57.126;24.288;2023-03-04T07:28:10;99257.75;;;0.74;100.00
51781;BME280;37844;57.126;24.288;2023-03-04T07:30:38;99256.16;;;0.78;100.00
51781;BME280;37844;57.126;24.288;2023-03-04T07:33:04;99259.03;;;0.90;100.00
51781;BME280;37844;57.126;24.288;2023-03-04T07:35:29;99257.44;;;0.94;100.00
51781;BME280;37844;57.126;24.288;2023-03-04T07:37:55;99259.94;;;0.92;100.00
51781;BME280;37844;57.126;24.288;2023-03-04T07:40:20;99257.31;;;0.89;100.00
51781;BME280;37844;57.126;24.288;2023-03-04T07:42:49;99260.56;;;0.83;100.00
51781;BME280;37844;57.126;24.288;2023-03-04T07:45:15;99236.00;;;0.82;100.00
51781;BME280;37844;57.126;24.288;2023-03-04T07:47:41;99251.34;;;0.87;100.00
51781;BME280;37844;57.126;24.288;2023-03-04T07:50:09;99253.06;;;0.88;100.00
51781;BME280;37844;57.126;24.288;2023-03-04T07:52:43;99234.22;;;0.78;100.00
51781;BME280;37844;57.126;24.288;2023-03-04T07:55:09;99237.63;;;0.80;100.00
51781;BME280;37844;57.126;24.288;2023-03-04T07:57:37;99247.63;;;0.74;100.00
51781;BME280;37844;57.126;24.288;2023-03-04T08:00:02;99218.69;;;0.68;100.00
51781;BME280;37844;57.126;24.288;2023-03-04T08:02:28;99229.22;;;0.51;100.00
51781;BME280;37844;57.126;24.288;2023-03-04T08:04:54;99249.94;;;0.38;100.00
51781;BME280;37844;57.126;24.288;2023-03-04T08:07:19;99256.03;;;0.43;100.00
51781;BME280;37844;57.126;24.288;2023-03-04T08:09:45;99263.06;;;0.25;100.00
51781;BME280;37844;57.126;24.288;2023-03-04T08:12:10;99233.09;;;0.11;100.00
51781;BME280;37844;57.126;24.288;2023-03-04T08:14:36;99242.19;;;0.05;100.00
51781;BME280;37844;57.126;24.288;2023-03-04T08:17:02;99229.44;;;0.02;100.00
51781;BME280;37844;57.126;24.288;2023-03-04T08:19:27;99242.94;;;0.02;100.00
51781;BME280;37844;57.126;24.288;2023-03-04T08:21:52;99254.75;;;0.02;100.00
51781;BME280;37844;57.126;24.288;2023-03-04T08:24:18;99245.16;;;-0.09;100.00
51781;BME280;37844;57.126;24.288;2023-03-04T08:26:45;99227.28;;;-0.13;100.00
51781;BME280;37844;57.126;24.288;2023-03-04T08:29:12;99209.56;;;-0.13;100.00
51781;BME280;37844;57.126;24.288;2023-03-04T08:31:38;99230.38;;;-0.24;100.00
51781;BME280;37844;57.126;24.288;2023-03-04T08:34:04;99237.81;;;-0.28;100.00
51781;BME280;37844;57.126;24.288;2023-03-04T08:36:34;99209.00;;;-0.32;100.00
51781;BME280;37844;57.126;24.288;2023-03-04T08:39:01;99234.38;;;-0.30;100.00
51781;BME280;37844;57.126;24.288;2023-03-04T08:41:26;99240.50;;;-0.24;100.00
51781;BME280;37844;57.126;24.288;2023-03-04T08:43:52;99230.44;;;-0.20;100.00
51781;BME280;37844;57.126;24.288;2023-03-04T08:46:17;99223.47;;;-0.28;100.00
51781;BME280;37844;57.126;24.288;2023-03-04T08:48:45;99237.19;;;-0.21;100.00
51781;BME280;37844;57.126;24.288;2023-03-04T08:51:12;99226.47;;;-0.12;100.00
51781;BME280;37844;57.126;24.288;2023-03-04T08:53:38;99239.88;;;-0.16;100.00
51781;BME280;37844;57.126;24.288;2023-03-04T08:56:04;99236.78;;;-0.33;100.00
51781;BME280;37844;57.126;24.288;2023-03-04T08:58:30;99232.44;;;-0.37;100.00
51781;BME280;37844;57.126;24.288;2023-03-04T09:00:57;99241.97;;;-0.30;100.00
51781;BME280;37844;57.126;24.288;2023-03-04T09:03:23;99230.25;;;-0.27;100.00
51781;BME280;37844;57.126;24.288;2023-03-04T09:05:48;99231.78;;;-0.32;100.00
51781;BME280;37844;57.126;24.288;2023-03-04T09:08:14;99220.59;;;-0.38;100.00
51781;BME280;37844;57.126;24.288;2023-03-04T09:10:40;99243.06;;;-0.48;100.00
51781;BME280;37844;57.126;24.288;2023-03-04T09:13:14;99235.59;;;-0.45;100.00
51781;BME280;37844;57.126;24.288;2023-03-04T09:15:50;99223.25;;;-0.35;100.00
51781;BME280;37844;57.126;24.288;2023-03-04T09:18:16;99226.56;;;-0.36;100.00
51781;BME280;37844;57.126;24.288;2023-03-04T09:20:42;99228.31;;;-0.35;100.00
51781;BME280;37844;57.126;24.288;2023-03-04T09:23:07;99212.75;;;-0.46;100.00
51781;BME280;37844;57.126;24.288;2023-03-04T09:25:37;99229.56;;;-0.48;100.00
51781;BME280;37844;57.126;24.288;2023-03-04T09:28:03;99226.63;;;-0.35;100.00
51781;BME280;37844;57.126;24.288;2023-03-04T09:30:29;99216.94;;;-0.21;100.00
51781;BME280;37844;57.126;24.288;2023-03-04T09:32:54;99204.41;;;-0.16;100.00
51781;BME280;37844;57.126;24.288;2023-03-04T09:35:26;99222.09;;;-0.18;100.00
51781;BME280;37844;57.126;24.288;2023-03-04T09:37:54;99206.22;;;-0.12;100.00
51781;BME280;37844;57.126;24.288;2023-03-04T09:40:32;99198.66;;;-0.11;100.00
51781;BME280;37844;57.126;24.288;2023-03-04T09:42:59;99193.81;;;-0.03;100.00
51781;BME280;37844;57.126;24.288;2023-03-04T09:45:33;99178.06;;;0.06;100.00
51781;BME280;37844;57.126;24.288;2023-03-04T09:47:59;99201.84;;;0.11;100.00
51781;BME280;37844;57.126;24.288;2023-03-04T09:50:25;99184.19;;;0.14;100.00
51781;BME280;37844;57.126;24.288;2023-03-04T09:58:06;99182.78;;;-0.05;100.00
51781;BME280;37844;57.126;24.288;2023-03-04T10:00:34;99178.41;;;-0.11;100.00
51781;BME280;37844;57.126;24.288;2023-03-04T10:10:41;99154.34;;;-0.25;100.00
51781;BME280;37844;57.126;24.288;2023-03-04T10:13:13;99152.66;;;-0.25;100.00
51781;BME280;37844;57.126;24.288;2023-03-04T10:15:41;99167.16;;;-0.20;100.00
51781;BME280;37844;57.126;24.288;2023-03-04T10:21:10;99152.84;;;-0.47;100.00
51781;BME280;37844;57.126;24.288;2023-03-04T10:23:27;99138.63;;;-0.69;100.00
51781;BME280;37844;57.126;24.288;2023-03-04T10:25:53;99147.28;;;-0.62;100.00
51781;BME280;37844;57.126;24.288;2023-03-04T10:28:39;99143.03;;;-0.63;100.00
51781;BME280;37844;57.126;24.288;2023-03-04T10:33:33;99125.94;;;-0.71;100.00
51781;BME280;37844;57.126;24.288;2023-03-04T10:38:29;99133.53;;;-0.71;100.00
51781;BME280;37844;57.126;24.288;2023-03-04T10:40:55;99101.34;;;-0.75;100.00
51781;BME280;37844;57.126;24.288;2023-03-04T12:57:17;99172.47;;;0.46;100.00
